createdAt,value
2019-02-12T00:00:31.373Z,56.21
2019-02-12T00:05:37.166Z,55.92
2019-02-12T00:10:47.598Z,56.93
2019-02-12T00:15:55.558Z,56.77
2019-02-12T00:21:09.117Z,56.91
2019-02-12T00:26:12.281Z,56.82
2019-02-12T00:31:18.509Z,56.53
2019-02-12T00:36:24.464Z,57.17
2019-02-12T00:41:30.204Z,57.37
2019-02-12T00:46:37.197Z,57.65
2019-02-12T00:51:43.282Z,58.50
2019-02-12T00:56:49.221Z,58.06
2019-02-12T01:01:56.925Z,59.66
2019-02-12T01:07:03.569Z,59.49
2019-02-12T01:12:11.076Z,60.42
2019-02-12T01:17:17.230Z,60.60
2019-02-12T01:22:23.110Z,59.86
2019-02-12T01:27:28.914Z,61.31
2019-02-12T01:32:35.700Z,61.02
2019-02-12T01:37:41.389Z,61.40
2019-02-12T01:42:47.378Z,60.75
2019-02-12T01:47:53.885Z,60.51
2019-02-12T01:53:01.271Z,59.25
2019-02-12T01:58:08.400Z,60.23
2019-02-12T02:03:15.367Z,60.42
2019-02-12T02:08:22.656Z,60.02
2019-02-12T02:13:28.722Z,58.17
2019-02-12T02:18:35.129Z,57.77
2019-02-12T02:23:41.817Z,58.10
2019-02-12T02:28:48.561Z,58.66
2019-02-12T02:33:54.921Z,58.61
2019-02-12T02:39:00.873Z,58.40
2019-02-12T02:44:08.505Z,59.26
2019-02-12T02:49:14.501Z,58.92
2019-02-12T02:54:20.528Z,59.31
2019-02-12T02:59:30.442Z,60.38
2019-02-12T03:04:36.570Z,61.31
2019-02-12T03:09:44.558Z,60.45
2019-02-12T03:14:50.638Z,61.39
2019-02-12T03:19:56.806Z,61.53
2019-02-12T03:25:08.721Z,60.85
2019-02-12T03:30:15.896Z,62.13
2019-02-12T03:35:22.458Z,61.70
2019-02-12T03:40:28.034Z,62.34
2019-02-12T03:45:38.511Z,62.11
2019-02-12T03:50:44.413Z,62.11
2019-02-12T03:55:50.305Z,61.31
2019-02-12T04:00:56.923Z,60.96
2019-02-12T04:06:03.006Z,61.77
2019-02-12T04:11:09.034Z,60.31
2019-02-12T04:16:15.097Z,61.24
2019-02-12T04:21:23.113Z,60.56
2019-02-12T04:26:28.762Z,61.02
2019-02-12T04:31:36.451Z,61.20
2019-02-12T04:36:45.463Z,60.06
2019-02-12T04:41:53.502Z,60.34
2019-02-12T04:47:00.320Z,60.81
2019-02-12T04:52:05.924Z,59.95
2019-02-12T04:57:12.614Z,59.62
2019-02-12T05:02:21.705Z,60.73
2019-02-12T05:07:27.472Z,61.34
2019-02-12T05:12:33.638Z,60.35
2019-02-12T05:17:39.620Z,59.43
2019-02-12T05:22:45.757Z,60.85
2019-02-12T05:27:54.641Z,61.71
2019-02-12T05:33:03.772Z,61.36
2019-02-12T05:38:10.288Z,61.59
2019-02-12T05:43:16.689Z,61.94
2019-02-12T05:48:22.313Z,61.82
2019-02-12T05:53:28.035Z,63.39
2019-02-12T05:58:34.787Z,63.43
2019-02-12T06:03:41.111Z,63.99
2019-02-12T06:08:48.293Z,63.81
2019-02-12T06:13:56.892Z,64.15
2019-02-12T06:19:07.642Z,63.48
2019-02-12T06:24:13.903Z,64.14
2019-02-12T06:29:20.985Z,64.14
2019-02-12T06:34:26.653Z,62.99
2019-02-12T06:39:32.457Z,62.19
2019-02-12T06:44:39.870Z,62.07
2019-02-12T06:49:47.239Z,62.09
2019-02-12T06:54:55.023Z,62.37
2019-02-12T07:00:02.271Z,62.25
2019-02-12T07:05:10.139Z,61.14
2019-02-12T07:10:16.862Z,61.12
2019-02-12T07:15:25.880Z,61.39
2019-02-12T07:20:44.669Z,61.80
2019-02-12T07:26:00.173Z,61.51
2019-02-12T07:31:28.168Z,61.72
2019-02-12T07:36:56.946Z,60.52
2019-02-12T07:42:20.344Z,60.55
2019-02-12T07:47:46.391Z,59.79
2019-02-12T07:52:57.590Z,59.40
2019-02-12T07:58:42.993Z,58.45
2019-02-12T08:04:08.253Z,59.45
2019-02-12T08:09:37.875Z,58.83
2019-02-12T08:14:49.835Z,58.36
2019-02-12T08:20:02.353Z,59.24
2019-02-12T08:25:26.069Z,59.81
2019-02-12T08:30:46.684Z,59.93
2019-02-12T08:35:59.259Z,58.50
2019-02-12T08:41:24.666Z,58.81
2019-02-12T08:46:53.241Z,59.39
2019-02-12T08:52:23.412Z,57.89
2019-02-12T08:57:48.763Z,58.56
2019-02-12T09:03:22.508Z,57.26
2019-02-12T09:08:45.615Z,58.00
2019-02-12T09:14:04.001Z,57.99
2019-02-12T09:19:25.154Z,58.79
2019-02-12T09:24:51.351Z,58.25
2019-02-12T09:30:12.686Z,56.11
2019-02-12T09:35:43.893Z,54.91
2019-02-12T09:40:58.743Z,54.82
2019-02-12T09:46:22.838Z,54.21
2019-02-12T09:51:43.694Z,51.85
2019-02-12T09:56:59.003Z,51.56
2019-02-12T10:02:25.071Z,51.62
2019-02-12T10:07:40.797Z,49.01
2019-02-12T10:13:21.461Z,50.56
2019-02-12T10:18:35.439Z,49.58
2019-02-12T10:24:08.482Z,49.95
2019-02-12T10:29:21.979Z,50.23
2019-02-12T10:34:29.458Z,48.53
2019-02-12T10:39:36.656Z,49.28
2019-02-12T10:44:43.653Z,46.53
2019-02-12T10:49:50.461Z,47.04
2019-02-12T10:54:57.097Z,45.75
2019-02-12T11:00:11.019Z,45.19
2019-02-12T11:05:18.923Z,45.84
2019-02-12T11:10:28.656Z,45.08
2019-02-12T11:15:40.473Z,44.51
2019-02-12T11:20:48.354Z,44.41
2019-02-12T11:25:54.485Z,44.16
2019-02-12T11:31:00.758Z,44.20
2019-02-12T11:36:06.493Z,43.20
2019-02-12T11:41:12.822Z,42.48
2019-02-12T11:46:19.610Z,43.23
2019-02-12T11:51:28.424Z,44.07
2019-02-12T11:56:36.277Z,43.54
2019-02-12T12:01:44.260Z,44.99
2019-02-12T12:06:52.128Z,44.37
2019-02-12T12:12:03.084Z,42.50
2019-02-12T12:17:10.795Z,42.73
2019-02-12T12:22:18.282Z,42.37
2019-02-12T12:27:29.111Z,42.18
2019-02-12T12:32:35.033Z,43.58
2019-02-12T12:37:41.404Z,42.47
2019-02-12T12:42:47.399Z,43.33
2019-02-12T12:47:54.661Z,43.40
2019-02-12T12:53:02.604Z,42.75
2019-02-12T12:58:11.350Z,41.40
2019-02-12T13:03:20.991Z,40.19
2019-02-12T13:08:27.273Z,40.25
2019-02-12T13:13:33.851Z,37.97
2019-02-12T13:18:43.171Z,36.45
2019-02-12T13:23:48.983Z,36.00
2019-02-12T13:28:56.494Z,36.70
2019-02-12T13:34:03.479Z,36.79
2019-02-12T13:39:09.434Z,37.75
2019-02-12T13:44:19.604Z,36.75
2019-02-12T13:49:28.169Z,35.66
2019-02-12T13:54:37.929Z,36.36
2019-02-12T13:59:44.044Z,37.31
2019-02-12T14:04:51.509Z,37.02
2019-02-12T14:09:59.127Z,36.16
2019-02-12T14:15:14.707Z,34.77
2019-02-12T14:20:20.648Z,36.02
2019-02-12T14:25:30.830Z,36.35
2019-02-12T14:30:39.362Z,37.03
2019-02-12T14:35:45.838Z,36.53
2019-02-12T14:40:53.234Z,36.30
2019-02-12T14:45:58.998Z,36.98
2019-02-12T14:51:05.184Z,37.39
2019-02-12T14:56:12.334Z,36.94
2019-02-12T15:01:18.323Z,38.30
2019-02-12T15:06:24.732Z,37.18
2019-02-12T15:11:35.905Z,36.29
2019-02-12T15:16:42.252Z,36.61
2019-02-12T15:21:51.828Z,36.58
2019-02-12T15:27:02.502Z,37.77
2019-02-12T15:32:09.239Z,37.71
2019-02-12T15:37:16.998Z,39.56
2019-02-12T15:42:25.873Z,38.65
2019-02-12T15:47:31.694Z,39.73
2019-02-12T15:52:37.924Z,40.13
2019-02-12T15:57:45.909Z,41.00
2019-02-12T16:02:54.528Z,40.21
2019-02-12T16:08:00.319Z,41.59
2019-02-12T16:13:06.993Z,41.54
2019-02-12T16:18:15.841Z,41.42
2019-02-12T16:23:23.764Z,41.72
2019-02-12T16:28:30.098Z,41.48
2019-02-12T16:33:42.285Z,41.66
2019-02-12T16:38:49.127Z,41.02
2019-02-12T16:43:55.510Z,40.88
2019-02-12T16:49:01.951Z,41.29
2019-02-12T16:54:09.608Z,41.24
2019-02-12T16:59:15.430Z,40.81
2019-02-12T17:04:21.610Z,41.94
2019-02-12T17:09:28.378Z,42.33
2019-02-12T17:14:34.562Z,42.88
2019-02-12T17:19:43.954Z,42.43
2019-02-12T17:24:52.530Z,43.36
2019-02-12T17:29:59.407Z,43.41
2019-02-12T17:35:06.988Z,43.71
2019-02-12T17:40:15.395Z,42.32
2019-02-12T17:45:21.631Z,42.99
2019-02-12T17:50:27.832Z,43.50
2019-02-12T17:55:33.961Z,43.72
2019-02-12T18:00:41.623Z,43.87
2019-02-12T18:05:48.963Z,43.00
2019-02-12T18:10:57.453Z,42.89
2019-02-12T18:16:04.018Z,42.54
2019-02-12T18:21:11.178Z,43.24
2019-02-12T18:26:18.613Z,43.77
2019-02-12T18:31:24.289Z,43.34
2019-02-12T18:36:32.934Z,43.46
2019-02-12T18:41:40.028Z,43.53
2019-02-12T18:46:47.848Z,44.34
2019-02-12T18:51:53.770Z,44.41
2019-02-12T18:56:59.414Z,44.11
2019-02-12T19:02:05.595Z,44.36
2019-02-12T19:07:13.353Z,45.04
2019-02-12T19:12:19.700Z,45.80
2019-02-12T19:17:25.449Z,45.65
2019-02-12T19:22:31.511Z,45.36
2019-02-12T19:27:38.039Z,46.50
2019-02-12T19:32:44.038Z,45.77
2019-02-12T19:37:49.861Z,47.00
2019-02-12T19:42:59.096Z,48.14
2019-02-12T19:48:05.354Z,48.88
2019-02-12T19:53:14.136Z,48.72
2019-02-12T19:58:22.119Z,47.93
2019-02-12T20:03:28.635Z,47.62
2019-02-12T20:08:35.560Z,47.14
2019-02-12T20:13:41.219Z,46.25
2019-02-12T20:18:47.235Z,47.03
2019-02-12T20:23:53.572Z,46.78
2019-02-12T20:29:01.320Z,46.69
2019-02-12T20:34:07.072Z,46.82
2019-02-12T20:39:13.244Z,47.12
2019-02-12T20:44:22.271Z,48.18
2019-02-12T20:49:29.463Z,48.30
2019-02-12T20:54:37.358Z,49.36
2019-02-12T20:59:43.257Z,48.43
2019-02-12T21:04:49.121Z,48.90
2019-02-12T21:09:55.295Z,48.92
2019-02-12T21:15:01.123Z,49.14
2019-02-12T21:20:10.664Z,49.63
2019-02-12T21:25:18.647Z,49.38
2019-02-12T21:30:32.316Z,49.79
2019-02-12T21:35:41.320Z,50.81
2019-02-12T21:40:47.730Z,51.76
2019-02-12T21:45:54.480Z,52.99
2019-02-12T21:51:00.800Z,52.95
2019-02-12T21:56:06.867Z,54.30
2019-02-12T22:01:12.670Z,54.37
2019-02-12T22:06:19.627Z,56.29
2019-02-12T22:11:26.848Z,55.91
2019-02-12T22:16:32.895Z,55.82
2019-02-12T22:21:38.972Z,56.30
2019-02-12T22:26:45.327Z,56.30
2019-02-12T22:31:52.843Z,56.72
2019-02-12T22:36:59.095Z,56.79
2019-02-12T22:42:05.533Z,57.02
2019-02-12T22:47:11.198Z,57.07
2019-02-12T22:52:16.912Z,58.16
2019-02-12T22:57:22.899Z,58.29
2019-02-12T23:02:28.771Z,59.58
2019-02-12T23:07:34.870Z,58.69
2019-02-12T23:12:41.287Z,58.93
2019-02-12T23:17:48.817Z,58.88
2019-02-12T23:22:54.442Z,59.77
2019-02-12T23:28:00.619Z,59.99
2019-02-12T23:33:06.591Z,59.60
2019-02-12T23:38:12.891Z,59.80
2019-02-12T23:43:18.526Z,60.85
2019-02-12T23:48:24.185Z,61.49
2019-02-12T23:53:30.647Z,63.03
2019-02-12T23:58:36.247Z,63.74
